Time;durP1;ratioP1;P1;durP2;ratioP2;P2;SDS_P1;SDS_P2;PMS_P1;PMS_P2;Temp;Humidity;BMP_temperature;BMP_pressure;BME280_temperature;BME280_humidity;BME280_pressure;Samples;Min_cycle;Max_cycle;Signal;HPM_P1;HPM_P2
2022/10/03 00:02:09;;;;;;;24.48;14.93;;;;;;;11.22;100.00;97264.63;4916904;29;20059;-59
2022/10/03 00:04:45;;;;;;;22.63;14.63;;;;;;;11.26;100.00;97250.47;4916654;29;20047;-58
2022/10/03 00:07:37;;;;;;;26.70;14.65;;;;;;;11.30;100.00;97248.81;4916933;29;20040;-59
2022/10/03 00:10:18;;;;;;;26.33;15.85;;;;;;;11.40;100.00;97237.22;4899864;29;20036;-59
2022/10/03 00:13:04;;;;;;;26.90;14.73;;;;;;;11.44;100.00;97229.44;4916632;29;20565;-60
2022/10/03 00:15:29;;;;;;;28.73;15.38;;;;;;;11.49;100.00;97224.03;4899591;29;20063;-59
2022/10/03 00:18:19;;;;;;;25.98;14.98;;;;;;;11.53;100.00;97222.38;4915509;29;20044;-58
2022/10/03 00:20:44;;;;;;;27.13;14.13;;;;;;;11.56;100.00;97216.50;4915959;29;20044;-59
2022/10/03 00:23:38;;;;;;;23.80;15.13;;;;;;;11.58;100.00;97214.31;4916329;29;20522;-60
2022/10/03 00:26:29;;;;;;;26.05;15.10;;;;;;;11.66;100.00;97204.88;4899545;29;20051;-59
2022/10/03 00:29:13;;;;;;;22.80;13.90;;;;;;;11.70;100.00;97205.84;4916351;29;20056;-59
2022/10/03 00:32:03;;;;;;;25.02;14.50;;;;;;;11.76;100.00;97207.31;4916181;29;20546;-60
2022/10/03 00:34:42;;;;;;;26.73;15.27;;;;;;;11.79;100.00;97193.44;4916080;29;20508;-59
2022/10/03 00:37:14;;;;;;;26.25;14.65;;;;;;;11.82;100.00;97177.72;4916357;29;20056;-59
2022/10/03 00:40:04;;;;;;;21.95;13.85;;;;;;;11.89;100.00;97189.81;4916103;29;20047;-59
2022/10/03 00:42:45;;;;;;;25.80;15.43;;;;;;;11.93;100.00;97169.53;4915934;29;20506;-60
2022/10/03 00:45:31;;;;;;;22.88;13.85;;;;;;;11.95;100.00;97181.44;4916161;29;20142;-59
2022/10/03 00:48:11;;;;;;;21.70;13.57;;;;;;;11.99;100.00;97163.81;4915576;29;20067;-57
2022/10/03 00:50:37;;;;;;;22.38;14.80;;;;;;;12.01;100.00;97171.50;4883318;29;20040;-59
2022/10/03 00:53:15;;;;;;;25.10;14.73;;;;;;;12.02;100.00;97160.56;4914806;29;20111;-61
2022/10/03 00:56:14;;;;;;;23.83;14.50;;;;;;;12.04;100.00;97157.59;4915782;29;20052;-60
2022/10/03 00:59:05;;;;;;;23.30;15.30;;;;;;;12.09;100.00;97157.50;4904303;29;20052;-59
2022/10/03 01:01:33;;;;;;;24.77;14.50;;;;;;;12.12;100.00;97158.75;4915610;29;20593;-59
2022/10/03 01:04:04;;;;;;;26.35;15.52;;;;;;;12.14;100.00;97161.88;4915810;29;20080;-59
2022/10/03 01:06:41;;;;;;;22.27;14.27;;;;;;;12.17;100.00;97148.78;4898922;29;20044;-58
2022/10/03 01:09:18;;;;;;;24.40;14.57;;;;;;;12.19;100.00;97151.16;4915812;29;20157;-59
2022/10/03 01:12:15;;;;;;;26.67;15.10;;;;;;;12.22;100.00;97153.97;4915461;29;20498;-59
2022/10/03 01:15:06;;;;;;;23.10;14.32;;;;;;;12.27;100.00;97142.47;4898747;29;20182;-58
2022/10/03 01:17:53;;;;;;;22.60;14.00;;;;;;;12.32;100.00;97144.19;4898764;29;20048;-59
2022/10/03 01:20:25;;;;;;;23.73;15.25;;;;;;;12.36;100.00;97140.66;4915596;29;20067;-59
2022/10/03 01:23:27;;;;;;;22.98;15.27;;;;;;;12.41;100.00;97124.59;4915428;29;20043;-59
2022/10/03 01:26:18;;;;;;;24.17;15.18;;;;;;;12.44;100.00;97110.69;4898252;29;20048;-59
2022/10/03 01:31:57;;;;;;;25.13;15.40;;;;;;;12.57;100.00;97122.31;4900532;29;20056;-59
2022/10/03 01:34:44;;;;;;;25.30;15.30;;;;;;;12.60;100.00;97112.94;4883117;29;20060;-59
2022/10/03 01:37:21;;;;;;;29.10;15.73;;;;;;;12.65;100.00;97116.25;4914290;29;20044;-58
2022/10/03 01:39:54;;;;;;;25.70;16.15;;;;;;;12.70;100.00;97094.84;4898314;29;20458;-60
2022/10/03 01:42:51;;;;;;;23.50;15.40;;;;;;;12.78;100.00;97092.53;4915381;29;20062;-59
2022/10/03 01:45:46;;;;;;;22.17;13.25;;;;;;;12.79;100.00;97081.59;4915385;29;20174;-59
2022/10/03 01:48:33;;;;;;;26.73;16.13;;;;;;;12.87;100.00;97080.06;4915098;29;20529;-59
2022/10/03 01:51:22;;;;;;;24.88;15.68;;;;;;;12.90;100.00;97077.56;4915511;29;20425;-58
2022/10/03 01:53:51;;;;;;;24.20;15.25;;;;;;;12.93;100.00;97076.94;4915062;29;20048;-59
2022/10/03 01:57:00;;;;;;;25.90;15.82;;;;;;;12.96;100.00;97076.31;4914740;29;20056;-59
2022/10/03 01:59:36;;;;;;;21.15;14.10;;;;;;;13.00;100.00;97076.50;4890305;29;20052;-59
2022/10/03 02:02:24;;;;;;;20.90;14.18;;;;;;;13.02;100.00;97076.97;4898142;29;20044;-58
2022/10/03 02:05:07;;;;;;;21.58;13.68;;;;;;;13.06;100.00;97069.94;4897858;29;20051;-58
2022/10/03 02:07:49;;;;;;;20.08;13.55;;;;;;;13.08;100.00;97074.94;4898240;29;20359;-58
2022/10/03 02:10:25;;;;;;;23.33;14.77;;;;;;;13.09;100.00;97071.22;4897880;29;20428;-58
2022/10/03 02:13:12;;;;;;;22.30;14.18;;;;;;;13.10;100.00;97054.94;4915112;29;20075;-60
2022/10/03 02:16:25;;;;;;;19.50;13.40;;;;;;;13.14;100.00;97055.88;4887884;29;20052;-60
2022/10/03 02:19:02;;;;;;;20.17;13.32;;;;;;;13.16;100.00;97056.34;4894871;29;20052;-59
2022/10/03 02:21:32;;;;;;;23.33;13.70;;;;;;;13.12;100.00;97039.44;4898011;29;20052;-59
2022/10/03 02:24:14;;;;;;;23.25;13.63;;;;;;;13.23;100.00;97041.81;4898079;29;20079;-58
2022/10/03 02:27:04;;;;;;;17.10;12.07;;;;;;;13.25;100.00;97045.75;4914721;29;20099;-58
2022/10/03 02:29:49;;;;;;;19.63;12.77;;;;;;;13.27;100.00;97040.13;4914837;29;20075;-60
2022/10/03 02:32:33;;;;;;;18.80;12.05;;;;;;;13.30;100.00;97036.84;4914653;29;20044;-60
2022/10/03 02:35:32;;;;;;;16.70;11.35;;;;;;;13.35;100.00;97034.81;4914983;29;20476;-58
2022/10/03 02:38:16;;;;;;;18.55;11.80;;;;;;;13.39;100.00;97035.75;4887842;29;20437;-58
2022/10/03 02:41:36;;;;;;;18.67;12.68;;;;;;;13.44;100.00;97029.47;4897643;29;20040;-59
2022/10/03 02:44:29;;;;;;;19.05;12.70;;;;;;;13.47;100.00;97034.19;4862290;29;20052;-59
2022/10/03 02:47:37;;;;;;;16.65;11.70;;;;;;;13.52;100.00;97017.28;4917995;29;20431;-59
2022/10/03 02:50:24;;;;;;;16.45;11.38;;;;;;;13.53;100.00;97016.97;4899639;29;20072;-59
2022/10/03 02:52:53;;;;;;;16.85;11.60;;;;;;;13.56;100.00;97016.34;4900898;29;20059;-59
2022/10/03 02:55:35;;;;;;;13.68;10.77;;;;;;;13.59;100.00;97017.59;4917974;29;20445;-58
2022/10/03 02:58:33;;;;;;;17.45;12.38;;;;;;;13.63;100.00;97010.53;4917828;29;20562;-58
2022/10/03 03:01:23;;;;;;;19.23;13.48;;;;;;;13.70;100.00;97007.38;4918036;29;20242;-59
2022/10/03 03:04:04;;;;;;;16.05;11.95;;;;;;;13.72;100.00;97007.84;4918226;29;20249;-58
2022/10/03 03:06:37;;;;;;;15.90;10.43;;;;;;;13.73;100.00;97022.72;4917775;29;20040;-59
2022/10/03 03:09:38;;;;;;;16.80;11.52;;;;;;;13.77;100.00;97005.81;4918107;29;20048;-58
2022/10/03 03:12:16;;;;;;;17.45;11.32;;;;;;;13.80;100.00;97009.72;4901143;29;20528;-59
2022/10/03 03:14:41;;;;;;;18.58;12.55;;;;;;;13.81;100.00;97009.41;4917968;29;20076;-58
2022/10/03 03:17:21;;;;;;;20.13;13.48;;;;;;;13.79;100.00;97006.25;4900741;29;20094;-61
2022/10/03 03:20:09;;;;;;;15.15;10.65;;;;;;;13.83;100.00;97001.88;4901173;29;20104;-59
2022/10/03 03:23:01;;;;;;;16.10;10.38;;;;;;;13.91;100.00;97000.28;4900647;29;20055;-59
2022/10/03 03:26:01;;;;;;;14.20;10.55;;;;;;;13.98;100.00;96994.50;4917606;29;20048;-59
2022/10/03 03:28:33;;;;;;;16.50;11.25;;;;;;;14.03;100.00;97013.75;4917690;29;20056;-59
2022/10/03 03:31:11;;;;;;;13.48;10.57;;;;;;;14.03;100.00;97002.28;4917739;29;20135;-58
2022/10/03 03:34:05;;;;;;;14.35;9.73;;;;;;;14.07;100.00;96995.25;4900863;29;20469;-58
2022/10/03 03:36:50;;;;;;;13.23;9.43;;;;;;;14.06;100.00;96999.81;4900880;29;20059;-58
2022/10/03 03:39:21;;;;;;;13.07;9.50;;;;;;;14.05;100.00;97000.88;4917461;29;20059;-59
2022/10/03 03:42:08;;;;;;;14.68;10.43;;;;;;;14.06;100.00;96991.81;4917090;29;20051;-59
2022/10/03 03:44:54;;;;;;;14.07;9.63;;;;;;;14.08;100.00;96981.59;4916968;29;20060;-59
2022/10/03 03:47:42;;;;;;;14.48;10.10;;;;;;;14.07;100.00;96990.69;4917011;29;20083;-59
2022/10/03 03:50:38;;;;;;;14.90;10.18;;;;;;;14.09;100.00;96982.41;4900147;29;20052;-58
2022/10/03 03:53:16;;;;;;;14.52;9.85;;;;;;;14.11;100.00;96974.09;4915534;29;20059;-59
2022/10/03 03:56:06;;;;;;;16.50;10.48;;;;;;;14.13;100.00;96980.66;4916266;29;20060;-59
2022/10/03 03:58:34;;;;;;;13.90;9.23;;;;;;;14.14;100.00;96984.09;4917009;29;20538;-58
2022/10/03 04:01:14;;;;;;;13.48;10.38;;;;;;;14.14;100.00;96971.56;4917281;29;20048;-60
2022/10/03 04:04:06;;;;;;;15.75;11.13;;;;;;;14.18;100.00;96977.81;4916652;29;20063;-60
2022/10/03 04:06:35;;;;;;;14.85;10.65;;;;;;;14.22;100.00;96977.97;4915002;29;20056;-59
2022/10/03 04:09:28;;;;;;;14.40;11.77;;;;;;;14.25;100.00;96964.00;4918704;29;20048;-61
2022/10/03 04:12:13;;;;;;;19.63;13.70;;;;;;;14.28;100.00;96958.81;4924742;29;20051;-59
2022/10/03 04:15:05;;;;;;;16.42;12.48;;;;;;;14.36;100.00;96959.88;4924552;29;20501;-57
2022/10/03 04:20:45;;;;;;;17.70;12.73;;;;;;;14.41;100.00;96949.03;4918735;29;20079;-64
2022/10/03 04:23:50;;;;;;;19.95;13.10;;;;;;;14.46;100.00;96946.19;4916496;29;20518;-61
2022/10/03 04:26:31;;;;;;;17.60;13.00;;;;;;;14.46;100.00;96934.72;4901359;29;20060;-62
2022/10/03 04:29:24;;;;;;;20.00;14.48;;;;;;;14.48;100.00;96929.88;4916533;29;20502;-60
2022/10/03 04:31:57;;;;;;;18.55;14.27;;;;;;;14.49;100.00;96924.22;4916213;29;20438;-61
2022/10/03 04:34:50;;;;;;;21.08;14.48;;;;;;;14.50;100.00;96915.13;4899266;29;20185;-58
2022/10/03 04:37:43;;;;;;;20.10;14.18;;;;;;;14.54;100.00;96916.06;4916241;29;20060;-59
2022/10/03 04:40:23;;;;;;;20.20;15.30;;;;;;;14.58;100.00;96918.84;4899069;29;20067;-58
2022/10/03 04:42:59;;;;;;;19.58;14.93;;;;;;;14.61;100.00;96912.09;4898954;29;20490;-56
2022/10/03 04:45:27;;;;;;;21.00;17.00;;;;;;;14.62;100.00;96903.78;4883237;29;20048;-58
2022/10/03 04:48:27;;;;;;;22.90;16.60;;;;;;;14.66;100.00;96912.69;4916249;29;20060;-58
2022/10/03 04:50:56;;;;;;;;;;;;;;;14.69;100.00;96905.94;4916858;29;20621;-57
2022/10/03 04:53:46;;;;;;;24.10;16.52;;;;;;;14.71;100.00;96907.19;4916146;29;19953;-57
2022/10/03 04:56:15;;;;;;;22.35;16.95;;;;;;;14.74;100.00;96901.19;4898956;29;20064;-58
2022/10/03 04:59:03;;;;;;;25.10;18.17;;;;;;;14.76;100.00;96907.00;4916130;29;20048;-57
2022/10/03 05:01:37;;;;;;;23.73;17.38;;;;;;;14.77;100.00;96900.53;4916242;29;20391;-58
2022/10/03 05:04:19;;;;;;;24.50;17.60;;;;;;;14.82;100.00;96901.44;4916108;29;20052;-59
2022/10/03 05:07:07;;;;;;;25.40;18.13;;;;;;;14.84;100.00;96902.69;4898886;29;20052;-60
2022/10/03 05:09:48;;;;;;;22.55;17.08;;;;;;;14.87;99.74;96898.59;4898612;29;20188;-57
2022/10/03 05:12:55;;;;;;;23.92;17.67;;;;;;;14.89;99.51;96899.81;4915788;29;20135;-57
2022/10/03 05:15:44;;;;;;;23.00;15.90;;;;;;;14.91;99.27;96896.81;4910211;29;20139;-60
2022/10/03 05:18:24;;;;;;;22.60;16.55;;;;;;;14.96;98.91;96899.28;4912508;29;20048;-57
2022/10/03 05:21:32;;;;;;;19.88;15.77;;;;;;;14.95;98.64;96895.84;4915737;29;20044;-58
2022/10/03 05:24:35;;;;;;;22.08;14.52;;;;;;;14.99;98.20;96871.97;4908073;29;20060;-58
2022/10/03 05:27:16;;;;;;;21.08;14.77;;;;;;;15.06;97.47;96874.91;4898504;29;20135;-59
2022/10/03 05:30:08;;;;;;;19.27;14.38;;;;;;;15.05;97.45;96889.31;4915584;29;20369;-64
2022/10/03 05:33:21;;;;;;;19.80;14.02;;;;;;;15.04;97.49;96877.09;4898754;29;20138;-59
2022/10/03 05:36:02;;;;;;;17.77;13.55;;;;;;;15.04;97.23;96873.66;4890883;29;20063;-60
2022/10/03 05:38:45;;;;;;;;;;;;;;;15.03;96.74;96867.56;4881498;29;20494;-59
2022/10/03 05:41:25;;;;;;;18.08;13.15;;;;;;;15.05;96.74;96851.19;4904260;29;19923;-58
2022/10/03 05:44:04;;;;;;;17.45;12.43;;;;;;;15.07;96.64;96852.44;4913675;29;20520;-59
2022/10/03 05:46:38;;;;;;;22.27;13.18;;;;;;;15.08;96.20;96847.88;4882619;29;20107;-58
2022/10/03 05:49:22;;;;;;;18.80;12.68;;;;;;;15.09;96.03;96846.75;4898124;29;20059;-57
2022/10/03 05:52:06;;;;;;;19.75;12.88;;;;;;;15.13;95.83;96851.13;4914937;29;20506;-59
2022/10/03 05:54:58;;;;;;;17.55;12.32;;;;;;;15.17;95.49;96841.34;4882253;29;20084;-59
2022/10/03 05:57:43;;;;;;;14.80;11.48;;;;;;;15.20;95.04;96824.66;4897871;29;20062;-59
2022/10/03 06:00:36;;;;;;;19.10;12.90;;;;;;;15.22;94.91;96816.34;4909673;29;20095;-58
2022/10/03 06:03:04;;;;;;;14.43;10.02;;;;;;;15.25;93.88;96804.25;4911084;29;20197;-59
2022/10/03 06:05:48;;;;;;;14.75;10.60;;;;;;;15.26;93.84;96805.78;4894599;29;20561;-59
2022/10/03 06:08:48;;;;;;;17.77;12.73;;;;;;;15.23;93.19;96783.22;4911664;29;20048;-59
2022/10/03 06:11:40;;;;;;;15.65;11.15;;;;;;;15.24;93.69;96792.03;4911778;29;20067;-58
2022/10/03 06:14:33;;;;;;;13.98;10.30;;;;;;;15.25;93.22;96788.22;4895932;29;20059;-58
2022/10/03 06:17:24;;;;;;;13.45;10.18;;;;;;;15.29;93.10;96805.13;4895386;29;20048;-58
2022/10/03 06:20:11;;;;;;;14.15;9.90;;;;;;;15.26;92.51;96773.75;4898375;29;20417;-57
2022/10/03 06:22:58;;;;;;;17.35;11.02;;;;;;;15.32;92.39;96785.78;4915122;29;20829;-57
2022/10/03 06:26:09;;;;;;;14.35;9.10;;;;;;;15.30;90.83;96780.00;4915965;29;20122;-58
2022/10/03 06:28:56;;;;;;;19.23;13.13;;;;;;;15.31;91.34;96798.34;4881607;29;20630;-59
2022/10/03 06:32:01;;;;;;;14.32;9.15;;;;;;;15.32;91.58;96791.13;4895836;29;20099;-57
2022/10/03 06:34:59;;;;;;;12.60;9.10;;;;;;;15.33;90.68;96779.34;4895642;29;20588;-57
2022/10/03 06:37:58;;;;;;;12.55;8.30;;;;;;;15.37;90.41;96785.56;4877106;29;20051;-58
2022/10/03 06:40:30;;;;;;;13.80;9.52;;;;;;;15.40;90.95;96774.22;4896543;29;20096;-58
2022/10/03 06:43:07;;;;;;;15.48;8.65;;;;;;;15.41;90.01;96781.94;4916214;29;20056;-58
2022/10/03 06:45:54;;;;;;;14.02;8.77;;;;;;;15.42;89.43;96783.47;4897443;29;20146;-58
2022/10/03 06:49:08;;;;;;;13.93;8.30;;;;;;;15.39;89.67;96772.69;4899109;29;20055;-57
2022/10/03 06:52:07;;;;;;;13.90;8.45;;;;;;;15.37;90.35;96773.00;4914827;29;20052;-57
2022/10/03 06:54:54;;;;;;;15.73;8.07;;;;;;;15.39;89.99;96768.13;4905578;29;20051;-58
2022/10/03 06:57:31;;;;;;;14.52;8.02;;;;;;;15.41;89.34;96776.59;4914426;29;20056;-58
2022/10/03 07:00:12;;;;;;;15.38;8.48;;;;;;;15.41;89.91;96765.91;4915419;29;20040;-58
2022/10/03 07:02:57;;;;;;;;;;;;;;;15.41;89.76;96771.25;4916681;29;20130;-60
2022/10/03 07:05:57;;;;;;;13.23;8.00;;;;;;;15.37;89.91;96764.22;4867594;29;19923;-57
2022/10/03 07:08:39;;;;;;;16.67;8.35;;;;;;;15.40;89.21;96779.56;4896427;29;20455;-57
2022/10/03 07:11:20;;;;;;;9.70;7.13;;;;;;;15.38;88.30;96773.78;4898239;29;20044;-56
2022/10/03 07:13:57;;;;;;;14.52;7.68;;;;;;;15.42;88.80;96767.44;4895748;29;20422;-59
2022/10/03 07:16:29;;;;;;;12.27;7.47;;;;;;;15.40;88.61;96775.00;4894856;29;20052;-60
2022/10/03 07:19:28;;;;;;;14.13;8.60;;;;;;;15.40;88.48;96784.91;4895531;29;20654;-59
2022/10/03 07:22:09;;;;;;;17.90;8.90;;;;;;;15.36;88.81;96778.69;4875509;29;20135;-57
2022/10/03 07:25:12;;;;;;;16.35;7.85;;;;;;;15.32;88.48;96781.22;4893070;29;20498;-59
2022/10/03 07:27:52;;;;;;;13.50;7.05;;;;;;;15.19;88.51;96777.75;4895999;29;20112;-59
2022/10/03 07:30:22;;;;;;;12.95;7.25;;;;;;;15.16;90.32;96782.97;4911205;29;20573;-53
2022/10/03 07:33:06;;;;;;;;;;;;;;;15.12;90.28;96790.09;4897001;29;20050;-54
2022/10/03 07:41:35;;;;;;;13.90;8.50;;;;;;;15.13;90.15;96783.66;4912679;29;20063;-57
2022/10/03 07:44:00;;;;;;;20.98;8.52;;;;;;;15.13;89.91;96780.97;4913896;29;20883;-56
2022/10/03 07:46:51;;;;;;;11.88;6.65;;;;;;;15.14;89.12;96769.19;4914002;29;20093;-59
2022/10/03 07:49:19;;;;;;;;;;;;;;;15.17;88.29;96774.63;4914284;29;20099;-59
2022/10/03 07:52:07;;;;;;;11.57;7.13;;;;;;;15.16;88.49;96767.75;4913465;29;19997;-57
2022/10/03 07:54:47;;;;;;;12.40;7.85;;;;;;;15.16;88.38;96785.66;4914027;29;20404;-62
2022/10/03 07:57:34;;;;;;;13.45;6.95;;;;;;;15.12;87.80;96776.75;4881559;29;20068;-57
2022/10/03 08:00:06;;;;;;;14.45;6.47;;;;;;;15.16;88.08;96777.66;4897678;29;20051;-58
2022/10/03 08:03:03;;;;;;;11.63;7.00;;;;;;;15.17;88.78;96773.84;4912037;29;20072;-57
2022/10/03 08:05:36;;;;;;;11.32;6.60;;;;;;;15.16;88.53;96774.97;4910711;29;20083;-57
2022/10/03 08:08:12;;;;;;;12.52;6.50;;;;;;;15.16;89.52;96775.75;4895756;29;20096;-58
2022/10/03 08:11:02;;;;;;;13.90;6.68;;;;;;;15.13;89.41;96759.63;4896258;29;20079;-56
2022/10/03 08:13:40;;;;;;;8.88;6.63;;;;;;;15.06;89.50;96773.53;4913712;29;20082;-58
2022/10/03 08:16:21;;;;;;;7.53;5.60;;;;;;;15.00;89.31;96780.19;4912598;29;20083;-60
2022/10/03 08:19:05;;;;;;;6.90;5.85;;;;;;;14.94;89.95;96765.47;4895193;29;20307;-58
2022/10/03 08:22:02;;;;;;;13.40;6.78;;;;;;;14.95;90.69;96761.72;4894849;29;20134;-57
2022/10/03 08:24:39;;;;;;;11.38;6.55;;;;;;;15.02;90.41;96764.59;4904633;29;20032;-57
2022/10/03 08:27:30;;;;;;;9.13;6.75;;;;;;;14.95;90.14;96775.81;4917767;29;20067;-59
2022/10/03 08:30:21;;;;;;;12.40;6.38;;;;;;;14.90;90.56;96773.34;4928792;29;20044;-56
2022/10/03 08:33:11;;;;;;;11.35;5.65;;;;;;;14.92;90.49;96773.03;4910833;29;20052;-59
2022/10/03 08:36:11;;;;;;;6.05;5.43;;;;;;;14.97;89.47;96762.94;4910928;29;20051;-58
2022/10/03 08:38:50;;;;;;;13.07;6.50;;;;;;;14.97;89.11;96765.59;4913833;29;20701;-58
2022/10/03 08:41:24;;;;;;;12.80;6.10;;;;;;;14.97;89.03;96776.28;4914028;29;20409;-60
2022/10/03 08:44:24;;;;;;;10.70;5.93;;;;;;;14.92;88.88;96773.81;4912904;29;20040;-58
2022/10/03 08:47:05;;;;;;;8.80;5.80;;;;;;;14.94;88.54;96784.13;4914152;29;20044;-58
2022/10/03 08:50:08;;;;;;;7.85;5.90;;;;;;;14.94;88.57;96784.94;4914125;29;20046;-57
2022/10/03 08:52:46;;;;;;;7.40;5.45;;;;;;;14.98;89.21;96783.16;4913211;29;20060;-59
2022/10/03 08:55:11;;;;;;;9.90;6.32;;;;;;;14.96;89.18;96792.59;4897348;29;20055;-59
2022/10/03 08:57:58;;;;;;;9.52;6.60;;;;;;;14.97;89.73;96789.63;4914031;29;20181;-59
2022/10/03 09:00:52;;;;;;;9.95;6.43;;;;;;;14.91;89.78;96801.59;4912866;29;20040;-56
2022/10/03 09:03:48;;;;;;;11.25;6.57;;;;;;;14.90;91.29;96813.34;4912265;29;20445;-58
2022/10/03 09:06:25;;;;;;;9.88;6.85;;;;;;;14.86;93.90;96827.69;4913287;29;20056;-56
2022/10/03 09:09:28;;;;;;;16.23;9.00;;;;;;;14.86;95.57;96835.69;4913012;29;20067;-58
2022/10/03 09:12:15;;;;;;;6.07;4.65;;;;;;;14.64;96.01;96829.56;4912304;29;20082;-57
2022/10/03 09:15:05;;;;;;;5.15;2.60;;;;;;;14.50;95.24;96829.03;4913054;29;20490;-58
2022/10/03 09:17:36;;;;;;;6.37;3.23;;;;;;;14.28;96.40;96827.47;4893128;29;20040;-60
2022/10/03 09:20:15;;;;;;;4.30;3.35;;;;;;;14.23;97.86;96828.41;4913918;29;20398;-57
2022/10/03 09:22:48;;;;;;;7.53;3.40;;;;;;;14.16;99.04;96828.16;4915247;29;20107;-58
2022/10/03 09:25:19;;;;;;;5.80;3.67;;;;;;;14.03;98.86;96829.16;4896848;29;20142;-57
2022/10/03 09:28:19;;;;;;;6.32;2.95;;;;;;;13.90;99.08;96825.63;4914677;29;20048;-59
2022/10/03 09:30:53;;;;;;;7.13;3.33;;;;;;;13.85;100.00;96829.28;4914542;29;20043;-57
2022/10/03 09:33:37;;;;;;;5.00;3.00;;;;;;;13.82;100.00;96837.09;4913561;29;20040;-58
2022/10/03 09:36:23;;;;;;;9.95;3.97;;;;;;;13.83;100.00;96831.47;4914147;29;20052;-57
2022/10/03 09:39:00;;;;;;;5.93;4.13;;;;;;;13.88;100.00;96829.72;4914250;29;20084;-56
2022/10/03 09:41:51;;;;;;;4.20;3.30;;;;;;;13.82;99.33;96850.41;4897728;29;20123;-58
2022/10/03 09:44:54;;;;;;;7.68;4.20;;;;;;;13.90;100.00;96838.94;4897000;29;20490;-57
2022/10/03 09:47:37;;;;;;;7.90;3.70;;;;;;;13.91;100.00;96835.19;4914824;29;20040;-59
2022/10/03 09:50:51;;;;;;;6.65;3.85;;;;;;;14.00;100.00;96841.28;4914002;29;20111;-59
2022/10/03 09:53:29;;;;;;;9.18;5.20;;;;;;;14.03;99.61;96837.97;4913764;29;20076;-59
2022/10/03 09:56:03;;;;;;;9.93;4.97;;;;;;;14.03;97.94;96848.63;4914057;29;20159;-56
2022/10/03 09:58:44;;;;;;;11.93;6.45;;;;;;;14.06;98.16;96853.31;4914045;29;20048;-59
2022/10/03 10:01:16;;;;;;;10.05;7.10;;;;;;;14.09;97.43;96847.31;4915202;29;20095;-58
2022/10/03 10:03:47;;;;;;;12.05;7.00;;;;;;;14.09;97.18;96852.66;4897823;29;20054;-59
2022/10/03 10:06:19;;;;;;;12.27;7.88;;;;;;;14.11;99.88;96849.66;4914524;29;20052;-61
2022/10/03 10:09:11;;;;;;;9.98;5.72;;;;;;;14.19;100.00;96858.72;4897525;29;20099;-61
2022/10/03 10:11:52;;;;;;;5.38;4.20;;;;;;;14.23;98.12;96868.38;4899559;29;20459;-58
2022/10/03 10:14:44;;;;;;;5.47;3.60;;;;;;;14.25;95.42;96854.75;4913712;29;20044;-58
2022/10/03 10:17:14;;;;;;;4.40;2.85;;;;;;;14.32;94.37;96858.47;4914106;29;20525;-58
2022/10/03 10:19:47;;;;;;;4.43;2.75;;;;;;;14.37;93.26;96865.50;4912395;29;20064;-58
2022/10/03 10:22:23;;;;;;;5.43;2.58;;;;;;;14.35;91.30;96872.25;4913418;29;20283;-59
2022/10/03 10:25:01;;;;;;;7.80;3.72;;;;;;;14.32;91.32;96871.81;4914385;29;20058;-59
2022/10/03 10:28:08;;;;;;;5.90;4.00;;;;;;;14.42;93.29;96870.63;4912029;29;20139;-58
2022/10/03 10:31:11;;;;;;;5.47;3.75;;;;;;;14.53;93.83;96876.41;4914012;29;20051;-57
2022/10/03 10:34:06;;;;;;;6.38;4.40;;;;;;;14.53;92.18;96871.84;4896340;29;20528;-59
2022/10/03 10:37:07;;;;;;;4.90;3.53;;;;;;;14.53;91.06;96887.06;4913309;29;20382;-59
2022/10/03 10:40:11;;;;;;;3.67;2.40;;;;;;;14.46;90.14;96884.09;4894524;29;20217;-58
2022/10/03 10:42:43;;;;;;;3.90;2.25;;;;;;;14.37;89.21;96884.16;4909054;29;20048;-59
2022/10/03 10:45:23;;;;;;;3.22;2.10;;;;;;;14.33;89.76;96891.22;4897179;29;20220;-58
2022/10/03 10:48:15;;;;;;;4.35;1.80;;;;;;;14.36;89.73;96892.47;4897469;29;20056;-58
2022/10/03 10:51:12;;;;;;;1.98;1.70;;;;;;;14.36;89.89;96898.59;4881309;29;20119;-60
2022/10/03 10:54:03;;;;;;;2.85;2.00;;;;;;;14.30;89.61;96899.88;4896816;29;20059;-59
2022/10/03 10:57:02;;;;;;;2.72;2.22;;;;;;;14.24;88.27;96909.94;4880562;29;20139;-59
2022/10/03 11:00:07;;;;;;;1.70;1.52;;;;;;;14.02;85.19;96921.63;4912491;29;20044;-55
2022/10/03 11:02:45;;;;;;;4.55;2.97;;;;;;;13.91;86.79;96915.06;4913027;29;20103;-57
2022/10/03 11:05:31;;;;;;;2.65;1.98;;;;;;;13.85;86.48;96916.34;4899176;29;20067;-56
2022/10/03 11:08:34;;;;;;;5.30;2.50;;;;;;;13.89;84.52;96914.63;4916543;29;20059;-59
2022/10/03 11:11:24;;;;;;;4.22;2.10;;;;;;;13.98;84.55;96917.25;4914052;29;20070;-59
2022/10/03 11:14:18;;;;;;;3.38;2.72;;;;;;;14.19;86.64;96931.41;4916118;29;20123;-57
2022/10/03 11:16:47;;;;;;;3.05;2.25;;;;;;;14.20;82.71;96932.97;4890744;29;20052;-58
2022/10/03 11:19:25;;;;;;;4.30;2.63;;;;;;;14.17;83.70;96936.28;4917272;29;20044;-56
2022/10/03 11:22:28;;;;;;;4.82;2.20;;;;;;;14.13;82.29;96954.00;4915850;29;20479;-58
2022/10/03 11:25:12;;;;;;;4.45;2.45;;;;;;;13.99;82.22;96948.88;4915611;29;20509;-59
2022/10/03 11:28:02;;;;;;;3.97;2.58;;;;;;;13.77;82.36;96957.91;4914473;29;20060;-57
2022/10/03 11:30:28;;;;;;;4.07;2.55;;;;;;;13.78;83.04;96969.31;4914557;29;20171;-57
2022/10/03 11:33:21;;;;;;;8.05;2.97;;;;;;;13.76;81.60;96985.59;4916081;29;20130;-59
2022/10/03 11:36:02;;;;;;;3.13;2.30;;;;;;;13.72;80.68;96982.00;4915376;29;20087;-59
2022/10/03 11:38:31;;;;;;;3.65;2.20;;;;;;;13.69;80.29;96979.97;4915912;29;20043;-60
2022/10/03 11:41:21;;;;;;;3.00;2.35;;;;;;;13.59;79.10;96989.09;4899091;29;20139;-58
2022/10/03 11:44:15;;;;;;;7.25;2.60;;;;;;;13.60;80.08;96989.88;4899256;29;20063;-60
2022/10/03 11:47:11;;;;;;;3.53;2.60;;;;;;;13.62;78.41;96990.34;4916986;29;20108;-58
2022/10/03 11:50:17;;;;;;;3.58;2.38;;;;;;;13.71;77.51;97007.09;4917089;29;20548;-57
2022/10/03 11:52:51;;;;;;;3.65;2.58;;;;;;;13.84;79.45;97008.78;4899430;29;20052;-58
2022/10/03 11:55:41;;;;;;;4.65;3.10;;;;;;;13.94;77.44;97014.84;4916234;29;20056;-59
2022/10/03 11:58:10;;;;;;;3.70;2.67;;;;;;;14.01;78.83;97013.28;4899773;29;20123;-57
2022/10/03 12:00:39;;;;;;;4.18;2.65;;;;;;;14.11;79.21;97020.16;4916322;29;20048;-59
2022/10/03 12:03:19;;;;;;;5.60;2.95;;;;;;;14.25;77.16;97017.28;4916860;29;20056;-57
2022/10/03 12:09:17;;;;;;;7.32;3.78;;;;;;;14.20;75.65;97015.56;4916580;29;20254;-58
2022/10/03 12:11:52;;;;;;;4.03;2.05;;;;;;;14.11;72.27;97016.69;4883252;29;20044;-58
2022/10/03 12:14:28;;;;;;;2.92;2.47;;;;;;;14.11;71.62;97035.34;4916367;29;20040;-58
2022/10/03 12:17:04;;;;;;;2.58;2.00;;;;;;;13.98;72.52;97027.22;4915878;29;20058;-57
2022/10/03 12:19:54;;;;;;;3.05;2.40;;;;;;;13.93;70.39;97032.72;4915826;29;20075;-57
2022/10/03 12:22:52;;;;;;;2.28;1.90;;;;;;;13.85;70.07;97036.97;4915844;29;20040;-58
2022/10/03 12:25:22;;;;;;;6.82;2.13;;;;;;;13.92;70.45;97043.72;4899656;29;20095;-58
2022/10/03 12:27:49;;;;;;;2.50;2.30;;;;;;;13.90;69.25;97040.56;4916154;29;20080;-58
2022/10/03 12:30:17;;;;;;;2.90;1.90;;;;;;;13.79;68.66;97050.75;4883612;29;20037;-58
2022/10/03 12:33:01;;;;;;;3.58;2.58;;;;;;;13.70;69.81;97058.75;4899533;29;20555;-58
2022/10/03 12:35:53;;;;;;;3.53;2.50;;;;;;;13.63;70.46;97063.78;4915265;29;20529;-59
2022/10/03 12:38:44;;;;;;;3.17;2.17;;;;;;;13.60;71.43;97080.38;4898135;29;20584;-55
2022/10/03 12:41:51;;;;;;;2.53;2.28;;;;;;;13.60;70.94;97077.72;4916459;29;20059;-59
2022/10/03 12:44:26;;;;;;;3.95;2.03;;;;;;;13.74;68.40;97098.84;4915202;29;20044;-58
2022/10/03 12:47:10;;;;;;;3.67;2.03;;;;;;;13.74;67.91;97104.97;4915652;29;20522;-59
2022/10/03 12:49:47;;;;;;;3.95;2.10;;;;;;;13.71;69.58;97107.47;4914918;29;20083;-59
2022/10/03 12:52:22;;;;;;;1.80;1.70;;;;;;;13.58;67.67;97115.28;4897560;29;20453;-59
2022/10/03 12:55:33;;;;;;;1.60;1.50;;;;;;;13.34;66.54;97112.28;4914535;29;20443;-61
2022/10/03 12:58:09;;;;;;;1.33;1.23;;;;;;;13.16;65.09;97120.19;4882307;29;20068;-62
2022/10/03 13:00:44;;;;;;;2.17;1.30;;;;;;;13.11;64.88;97135.50;4896508;29;20051;-61